createdAt,value
2019-04-27T00:00:35.362Z,55.17
2019-04-27T00:03:10.018Z,57.07
2019-04-27T00:05:43.411Z,53.37
2019-04-27T00:08:35.122Z,55.97
2019-04-27T00:11:08.762Z,54.50
2019-04-27T00:13:40.534Z,55.60
2019-04-27T00:16:25.663Z,52.13
2019-04-27T00:19:13.474Z,54.17
2019-04-27T00:22:02.755Z,52.57
2019-04-27T00:24:31.379Z,56.20
2019-04-27T00:27:00.680Z,51.30
2019-04-27T00:29:29.898Z,54.37
2019-04-27T00:31:58.016Z,53.23
2019-04-27T00:34:26.224Z,52.13
2019-04-27T00:37:10.497Z,53.53
2019-04-27T00:39:44.433Z,55.17
2019-04-27T00:42:13.490Z,54.23
2019-04-27T00:44:43.015Z,54.37
2019-04-27T00:47:11.462Z,56.53
2019-04-27T00:49:39.708Z,55.60
2019-04-27T00:52:07.808Z,54.93
2019-04-27T00:54:35.949Z,55.50
2019-04-27T00:57:12.951Z,59.43
2019-04-27T01:00:06.873Z,54.33
2019-04-27T01:02:45.303Z,54.80
2019-04-27T01:05:18.616Z,55.43
2019-04-27T01:07:46.830Z,58.17
2019-04-27T01:10:15.207Z,55.83
2019-04-27T01:12:44.339Z,61.07
2019-04-27T01:15:13.880Z,59.27
2019-04-27T01:17:43.018Z,63.40
2019-04-27T01:20:11.393Z,67.77
2019-04-27T01:22:39.777Z,62.73
2019-04-27T01:25:08.850Z,61.80
2019-04-27T01:27:57.528Z,60.17
2019-04-27T01:30:43.611Z,63.60
2019-04-27T01:33:11.941Z,63.90
2019-04-27T01:35:39.997Z,63.77
2019-04-27T01:38:09.042Z,65.33
2019-04-27T01:40:38.597Z,66.17
2019-04-27T01:43:06.774Z,67.53
2019-04-27T01:45:34.862Z,67.47
2019-04-27T01:48:03.265Z,68.50
2019-04-27T01:50:31.470Z,70.30
2019-04-27T01:52:59.547Z,65.60
2019-04-27T01:55:27.580Z,65.03
2019-04-27T01:57:55.629Z,66.53
2019-04-27T02:00:45.938Z,66.20
2019-04-27T02:03:16.396Z,69.50
2019-04-27T02:05:51.789Z,68.73
2019-04-27T02:08:19.821Z,69.50
2019-04-27T02:10:49.544Z,71.17
2019-04-27T02:13:18.863Z,66.37
2019-04-27T02:15:48.675Z,74.70
2019-04-27T02:18:17.335Z,72.33
2019-04-27T02:20:45.448Z,71.47
2019-04-27T02:23:13.717Z,78.03
2019-04-27T02:25:41.926Z,79.73
2019-04-27T02:28:20.199Z,74.53
2019-04-27T02:31:09.588Z,77.03
2019-04-27T02:33:50.164Z,70.10
2019-04-27T02:36:20.195Z,77.30
2019-04-27T02:38:49.230Z,74.03
2019-04-27T02:41:19.659Z,71.80
2019-04-27T02:44:01.373Z,71.47
2019-04-27T02:46:31.063Z,71.13
2019-04-27T02:49:03.138Z,71.63
2019-04-27T02:51:42.829Z,75.50
2019-04-27T02:54:12.627Z,75.93
2019-04-27T02:56:40.735Z,69.77
2019-04-27T02:59:11.895Z,72.60
2019-04-27T03:01:46.915Z,68.90
2019-04-27T03:04:15.097Z,71.50
2019-04-27T03:06:43.181Z,76.37
2019-04-27T03:09:11.344Z,72.10
2019-04-27T03:11:39.813Z,70.17
2019-04-27T03:14:32.426Z,70.73
2019-04-27T03:17:09.920Z,72.13
2019-04-27T03:19:55.996Z,70.80
2019-04-27T03:22:29.614Z,70.90
2019-04-27T03:25:32.060Z,74.30
2019-04-27T03:28:06.452Z,69.43
2019-04-27T03:30:36.179Z,68.37
2019-04-27T03:33:04.641Z,66.70
2019-04-27T03:35:36.563Z,69.87
2019-04-27T03:38:02.860Z,65.37
2019-04-27T03:40:30.997Z,63.17
2019-04-27T03:43:03.559Z,66.23
2019-04-27T03:45:31.801Z,63.70
2019-04-27T03:48:00.513Z,70.57
2019-04-27T03:50:33.913Z,65.07
2019-04-27T03:53:14.958Z,65.70
2019-04-27T03:55:46.174Z,63.50
2019-04-27T03:58:21.803Z,65.80
2019-04-27T04:00:52.122Z,60.87
2019-04-27T04:03:20.695Z,60.13
2019-04-27T04:05:49.492Z,60.33
2019-04-27T04:08:19.303Z,57.97
2019-04-27T04:10:52.927Z,60.57
2019-04-27T04:13:29.567Z,60.53
2019-04-27T04:16:14.593Z,56.13
2019-04-27T04:19:00.918Z,63.30
2019-04-27T04:21:29.976Z,67.07
2019-04-27T04:24:00.512Z,59.47
2019-04-27T04:26:32.154Z,58.70
2019-04-27T04:28:59.843Z,63.33
2019-04-27T04:31:29.790Z,62.10
2019-04-27T04:33:59.743Z,63.10
2019-04-27T04:36:30.178Z,57.20
2019-04-27T04:39:00.487Z,57.47
2019-04-27T04:41:35.813Z,58.93
2019-04-27T04:44:12.453Z,57.37
2019-04-27T04:47:00.353Z,57.57
2019-04-27T04:49:29.639Z,56.20
2019-04-27T04:51:59.462Z,53.63
2019-04-27T04:54:29.806Z,55.30
2019-04-27T04:56:59.457Z,57.90
2019-04-27T04:59:29.117Z,60.00
2019-04-27T05:01:57.295Z,54.95
2019-04-27T05:04:25.376Z,58.30
2019-04-27T05:06:53.588Z,58.47
2019-04-27T05:09:21.657Z,57.63
2019-04-27T05:11:49.848Z,52.50
2019-04-27T05:14:19.785Z,56.37
2019-04-27T05:16:48.916Z,57.23
2019-04-27T05:19:18.858Z,58.60
2019-04-27T05:21:49.005Z,56.97
2019-04-27T05:31:39.805Z,55.60
2019-04-27T05:34:09.354Z,57.00
2019-04-27T05:36:41.730Z,55.20
2019-04-27T05:39:09.632Z,47.85
2019-04-27T05:41:41.219Z,50.60
2019-04-27T05:44:24.181Z,48.77
2019-04-27T05:46:59.768Z,51.40
2019-04-27T05:49:48.540Z,52.13
2019-04-27T05:52:29.782Z,52.00
2019-04-27T05:54:59.097Z,50.20
2019-04-27T06:05:00.053Z,48.37
2019-04-27T06:07:29.735Z,45.60
2019-04-27T06:09:59.806Z,43.33
2019-04-27T06:12:29.671Z,44.47
2019-04-27T06:14:59.781Z,43.17
2019-04-27T06:17:29.891Z,43.00
2019-04-27T06:24:57.172Z,41.35
2019-04-27T06:27:25.384Z,44.40
2019-04-27T06:34:48.955Z,45.90
2019-04-27T06:44:42.531Z,40.33
2019-04-27T06:47:10.654Z,43.90
2019-04-27T06:49:39.575Z,40.60
2019-04-27T06:52:08.683Z,41.33
2019-04-27T06:54:38.968Z,37.17
2019-04-27T06:57:09.220Z,37.27
2019-04-27T06:59:37.341Z,33.37
2019-04-27T07:02:05.515Z,31.53
2019-04-27T07:04:33.733Z,32.17
2019-04-27T07:07:01.880Z,31.80
2019-04-27T07:09:29.983Z,29.93
2019-04-27T07:11:59.295Z,30.87
2019-04-27T07:14:29.322Z,30.03
2019-04-27T07:16:59.145Z,31.27
2019-04-27T07:19:28.703Z,31.67
2019-04-27T07:21:56.768Z,26.43
2019-04-27T07:24:24.780Z,32.50
2019-04-27T07:26:52.839Z,28.03
2019-04-27T07:29:23.206Z,27.97
2019-04-27T07:31:50.970Z,29.50
2019-04-27T07:34:19.138Z,28.77
2019-04-27T07:36:48.964Z,29.27
2019-04-27T07:39:19.021Z,27.67
2019-04-27T07:41:48.771Z,29.07
2019-04-27T07:44:45.659Z,27.70
2019-04-27T07:47:15.534Z,26.27
2019-04-27T07:49:43.724Z,24.37
2019-04-27T07:52:11.908Z,24.23
2019-04-27T07:54:40.966Z,27.73
2019-04-27T07:57:09.864Z,24.07
2019-04-27T07:59:41.485Z,25.67
2019-04-27T08:02:08.595Z,23.60
2019-04-27T08:04:40.033Z,23.03
2019-04-27T08:07:09.143Z,22.63
2019-04-27T08:09:37.350Z,24.13
2019-04-27T08:12:05.436Z,23.33
2019-04-27T08:14:33.484Z,22.60
2019-04-27T08:17:01.616Z,22.33
2019-04-27T08:19:30.744Z,22.17
2019-04-27T08:21:59.649Z,21.93
2019-04-27T08:24:29.475Z,21.40
2019-04-27T08:27:03.775Z,17.57
2019-04-27T08:29:46.246Z,19.17
2019-04-27T08:32:17.124Z,20.67
2019-04-27T08:34:45.233Z,18.37
2019-04-27T08:37:13.334Z,16.43
2019-04-27T08:39:41.403Z,20.27
2019-04-27T08:42:09.689Z,23.63
2019-04-27T08:44:39.698Z,17.23
2019-04-27T08:47:09.567Z,21.23
2019-04-27T08:49:39.430Z,15.37
2019-04-27T08:52:09.391Z,12.77
2019-04-27T08:54:39.251Z,15.40
2019-04-27T08:57:09.522Z,12.87
2019-04-27T08:59:39.337Z,16.13
2019-04-27T09:02:08.755Z,13.73
2019-04-27T09:04:37.012Z,11.13
2019-04-27T09:07:23.207Z,10.20
2019-04-27T09:09:55.277Z,10.60
2019-04-27T09:12:53.447Z,11.23
2019-04-27T09:15:35.399Z,12.07
2019-04-27T09:18:03.919Z,10.30
2019-04-27T09:20:52.893Z,10.90
2019-04-27T09:23:20.923Z,9.83
2019-04-27T09:25:49.644Z,9.43
2019-04-27T09:28:18.005Z,7.27
2019-04-27T09:30:46.129Z,7.03
2019-04-27T09:33:14.244Z,6.77
2019-04-27T09:35:42.346Z,8.97
2019-04-27T09:38:10.495Z,7.73
2019-04-27T09:40:38.585Z,8.23
2019-04-27T09:43:07.545Z,7.27
2019-04-27T09:45:37.160Z,8.20
2019-04-27T09:48:06.663Z,5.93
2019-04-27T09:50:36.056Z,5.70
2019-04-27T09:53:06.138Z,7.10
2019-04-27T09:55:34.306Z,6.53
2019-04-27T09:58:02.416Z,6.37
2019-04-27T10:00:30.611Z,7.53
2019-04-27T10:02:58.755Z,5.00
2019-04-27T10:05:26.979Z,5.17
2019-04-27T10:07:56.763Z,4.80
2019-04-27T10:10:26.828Z,5.90
2019-04-27T10:12:56.786Z,4.27
2019-04-27T10:18:12.958Z,5.63
2019-04-27T10:20:41.233Z,3.00
2019-04-27T10:23:09.445Z,5.03
2019-04-27T10:25:37.643Z,3.60
2019-04-27T10:28:06.792Z,6.17
2019-04-27T10:30:35.822Z,3.03
2019-04-27T10:33:07.719Z,3.17
2019-04-27T10:35:34.122Z,3.30
2019-04-27T10:38:02.323Z,4.10
2019-04-27T10:40:30.360Z,5.60
2019-04-27T10:42:58.630Z,3.67
2019-04-27T10:45:26.785Z,3.57
2019-04-27T10:47:56.277Z,3.60
2019-04-27T10:50:26.339Z,5.43
2019-04-27T10:52:56.793Z,2.37
2019-04-27T10:55:26.264Z,3.13
2019-04-27T10:57:54.423Z,2.77
2019-04-27T11:00:29.242Z,4.47
2019-04-27T11:02:58.353Z,2.33
2019-04-27T11:05:48.933Z,5.63
2019-04-27T11:08:17.211Z,2.87
2019-04-27T11:10:46.181Z,3.27
2019-04-27T11:13:16.359Z,6.17
2019-04-27T11:15:46.144Z,4.00
2019-04-27T11:18:14.433Z,3.50
2019-04-27T11:20:42.543Z,4.87
2019-04-27T11:23:12.353Z,2.37
2019-04-27T11:25:40.599Z,2.70
2019-04-27T11:28:08.627Z,3.07
2019-04-27T11:30:36.689Z,3.93
2019-04-27T11:33:06.276Z,2.67
2019-04-27T11:35:51.018Z,4.07
2019-04-27T11:38:19.154Z,3.05
2019-04-27T11:40:48.202Z,3.20
2019-04-27T11:43:16.325Z,4.47
2019-04-27T11:45:45.745Z,2.43
2019-04-27T11:48:16.018Z,5.73
2019-04-27T11:50:45.901Z,3.10
2019-04-27T11:53:22.682Z,2.93
2019-04-27T11:55:44.870Z,2.40
2019-04-27T11:58:12.916Z,3.67
2019-04-27T12:00:41.096Z,4.37
2019-04-27T12:03:09.267Z,6.20
2019-04-27T12:05:37.370Z,3.13
2019-04-27T12:08:06.283Z,2.33
2019-04-27T12:10:36.171Z,1.53
2019-04-27T12:13:05.462Z,2.75
2019-04-27T12:15:36.106Z,2.17
2019-04-27T12:18:08.573Z,2.40
2019-04-27T12:20:35.905Z,4.53
2019-04-27T12:23:04.141Z,2.70
2019-04-27T12:25:32.212Z,3.77
2019-04-27T12:28:16.054Z,2.85
2019-04-27T12:31:19.076Z,2.70
2019-04-27T12:33:47.323Z,3.67
2019-04-27T12:36:15.790Z,1.77
2019-04-27T12:38:44.033Z,3.93
2019-04-27T12:41:12.174Z,3.03
2019-04-27T12:43:40.285Z,1.87
2019-04-27T12:46:08.379Z,2.43
2019-04-27T12:48:38.471Z,2.67
2019-04-27T12:51:06.867Z,3.83
2019-04-27T12:53:50.634Z,3.63
2019-04-27T12:56:38.788Z,3.83
2019-04-27T12:59:26.179Z,3.40
2019-04-27T13:01:56.020Z,3.77
2019-04-27T13:04:24.310Z,1.82
2019-04-27T13:06:52.428Z,2.63
2019-04-27T13:09:20.485Z,2.50
2019-04-27T13:11:48.571Z,1.87
2019-04-27T13:14:16.787Z,2.93
2019-04-27T13:16:45.707Z,3.27
2019-04-27T13:19:17.645Z,1.40
2019-04-27T13:21:46.986Z,3.10
2019-04-27T13:24:18.806Z,2.80
2019-04-27T13:26:46.894Z,2.80
2019-04-27T13:29:16.641Z,4.83
2019-04-27T13:31:44.908Z,10.20
2019-04-27T13:34:12.975Z,11.23
2019-04-27T13:36:41.009Z,9.60
2019-04-27T13:39:09.129Z,9.13
2019-04-27T13:41:39.505Z,8.27
2019-04-27T13:44:09.187Z,7.30
2019-04-27T13:46:55.992Z,7.50
2019-04-27T13:49:43.856Z,8.33
2019-04-27T13:52:23.584Z,6.57
2019-04-27T13:54:51.885Z,6.73
2019-04-27T13:57:19.858Z,6.93
2019-04-27T13:59:47.895Z,5.83
2019-04-27T14:02:16.145Z,5.77
2019-04-27T14:04:46.828Z,4.73
2019-04-27T14:07:14.862Z,4.33
2019-04-27T14:09:42.969Z,4.00
2019-04-27T14:12:18.802Z,5.93
2019-04-27T14:14:49.086Z,7.07
2019-04-27T14:17:19.171Z,3.30
2019-04-27T14:19:48.243Z,3.50
2019-04-27T14:22:18.111Z,6.00
2019-04-27T14:24:46.311Z,4.30
2019-04-27T14:27:15.584Z,3.93
2019-04-27T14:29:43.674Z,4.93
2019-04-27T14:32:11.849Z,5.60
2019-04-27T14:34:41.002Z,3.70
2019-04-27T14:37:09.310Z,5.73
2019-04-27T14:39:38.976Z,4.37
2019-04-27T14:42:08.365Z,5.23
2019-04-27T14:45:16.777Z,5.73
2019-04-27T14:47:44.854Z,4.67
2019-04-27T14:50:13.135Z,5.03
2019-04-27T14:52:41.262Z,5.03
2019-04-27T14:55:09.947Z,5.40
2019-04-27T14:57:39.458Z,5.37
2019-04-27T15:00:10.216Z,7.80
2019-04-27T15:02:39.292Z,7.10
2019-04-27T15:05:07.535Z,7.73
2019-04-27T15:07:35.752Z,7.00
2019-04-27T15:10:04.789Z,7.87
2019-04-27T15:12:32.931Z,11.70
2019-04-27T15:15:01.582Z,10.10
2019-04-27T15:17:30.844Z,7.93
2019-04-27T15:20:04.062Z,8.73
2019-04-27T15:22:32.880Z,8.97
2019-04-27T15:25:13.066Z,11.37
2019-04-27T15:27:37.786Z,8.97
2019-04-27T15:30:11.549Z,9.37
2019-04-27T15:32:56.065Z,8.93
2019-04-27T15:35:35.461Z,7.87
2019-04-27T15:38:13.724Z,6.73
2019-04-27T15:41:04.357Z,9.13
2019-04-27T15:43:35.043Z,6.33
2019-04-27T15:46:04.180Z,7.10
2019-04-27T15:48:34.011Z,6.73
2019-04-27T15:51:09.098Z,9.37
2019-04-27T15:53:32.824Z,6.00
2019-04-27T15:56:01.929Z,6.27
2019-04-27T15:58:31.154Z,6.07
2019-04-27T16:01:01.031Z,5.67
2019-04-27T16:03:31.306Z,6.50
2019-04-27T16:06:03.337Z,6.60
2019-04-27T16:08:29.568Z,7.43
2019-04-27T16:10:58.842Z,8.77
2019-04-27T16:13:32.668Z,7.10
2019-04-27T16:15:58.412Z,8.50
2019-04-27T16:18:30.928Z,7.27
2019-04-27T16:20:58.488Z,7.17
2019-04-27T16:23:28.258Z,6.67
2019-04-27T16:25:58.240Z,6.23
2019-04-27T16:28:27.469Z,6.80
2019-04-27T16:30:55.518Z,6.83
2019-04-27T16:33:23.767Z,6.63
2019-04-27T16:35:53.044Z,8.57
2019-04-27T16:38:33.629Z,8.60
2019-04-27T16:41:03.206Z,12.10
2019-04-27T16:43:32.637Z,7.90
2019-04-27T16:46:04.282Z,9.17
2019-04-27T16:48:34.569Z,8.53
2019-04-27T16:51:00.943Z,7.67
2019-04-27T16:53:30.035Z,10.73
2019-04-27T16:56:06.263Z,8.60
2019-04-27T16:58:39.160Z,8.43
2019-04-27T17:01:24.190Z,9.10
2019-04-27T17:03:53.152Z,9.13
2019-04-27T17:06:21.567Z,9.37
2019-04-27T17:08:49.810Z,10.27
2019-04-27T17:11:19.555Z,11.00
2019-04-27T17:14:08.251Z,10.47
2019-04-27T17:16:54.563Z,11.87
2019-04-27T17:19:31.081Z,11.17
2019-04-27T17:21:59.189Z,9.90
2019-04-27T17:24:45.269Z,10.90
2019-04-27T17:27:11.191Z,9.67
2019-04-27T17:29:40.826Z,10.70
2019-04-27T17:32:17.312Z,10.33
2019-04-27T17:34:44.941Z,11.27
2019-04-27T17:37:12.958Z,10.87
2019-04-27T17:39:41.834Z,10.60
2019-04-27T17:42:09.987Z,10.20
2019-04-27T17:44:39.364Z,11.70
2019-04-27T17:47:09.032Z,12.77
2019-04-27T17:49:38.169Z,12.17
2019-04-27T17:52:08.635Z,14.80
2019-04-27T17:54:40.165Z,13.53
2019-04-27T17:57:10.421Z,14.70
2019-04-27T17:59:37.478Z,13.80
2019-04-27T18:02:06.185Z,14.67
2019-04-27T18:04:37.692Z,15.70
2019-04-27T18:07:04.389Z,16.47
2019-04-27T18:09:33.532Z,15.07
2019-04-27T18:12:02.465Z,11.63
2019-04-27T18:14:32.764Z,8.50
2019-04-27T18:17:03.680Z,8.00
2019-04-27T18:19:36.426Z,7.43
2019-04-27T18:22:05.347Z,7.40
2019-04-27T18:24:51.025Z,8.67
2019-04-27T18:27:48.326Z,7.20
2019-04-27T18:30:33.689Z,8.47
2019-04-27T18:33:05.615Z,6.93
2019-04-27T18:35:34.112Z,8.43
2019-04-27T18:38:02.417Z,7.93
2019-04-27T18:40:33.240Z,11.23
2019-04-27T18:43:01.971Z,9.37
2019-04-27T18:45:31.771Z,8.30
2019-04-27T18:48:06.604Z,7.93
2019-04-27T18:50:48.422Z,7.73
2019-04-27T18:53:23.286Z,8.00
2019-04-27T18:55:56.730Z,7.97
2019-04-27T18:58:22.627Z,10.27
2019-04-27T19:00:55.517Z,9.53
2019-04-27T19:03:26.114Z,8.27
2019-04-27T19:05:54.554Z,8.00
2019-04-27T19:08:25.606Z,8.33
2019-04-27T19:10:54.087Z,9.37
2019-04-27T19:13:22.814Z,8.17
2019-04-27T19:15:51.029Z,6.47
2019-04-27T19:18:19.723Z,8.33
2019-04-27T19:20:48.231Z,7.37
2019-04-27T19:23:16.473Z,8.27
2019-04-27T19:25:53.574Z,6.93
2019-04-27T19:28:41.784Z,8.37
2019-04-27T19:31:15.281Z,6.80
2019-04-27T19:33:43.359Z,8.60
2019-04-27T19:36:12.861Z,6.40
2019-04-27T19:38:41.133Z,6.83
2019-04-27T19:41:09.927Z,7.17
2019-04-27T19:43:38.428Z,6.47
2019-04-27T19:46:06.600Z,8.30
2019-04-27T19:48:34.670Z,6.20
2019-04-27T19:51:02.900Z,6.30
2019-04-27T19:53:30.952Z,4.57
2019-04-27T19:56:01.728Z,7.27
2019-04-27T19:58:34.481Z,5.67
2019-04-27T20:01:12.031Z,6.47
2019-04-27T20:03:42.774Z,6.10
2019-04-27T20:06:10.947Z,7.13
2019-04-27T20:08:41.519Z,5.57
2019-04-27T20:11:09.833Z,6.80
2019-04-27T20:13:37.888Z,7.27
2019-04-27T20:16:05.962Z,7.50
2019-04-27T20:18:34.239Z,7.63
2019-04-27T20:21:02.430Z,8.03
2019-04-27T20:23:30.837Z,7.73
2019-04-27T20:25:58.965Z,7.77
2019-04-27T20:28:27.005Z,8.47
2019-04-27T20:30:55.104Z,7.47
2019-04-27T20:33:23.290Z,10.57
2019-04-27T20:35:51.535Z,10.13
2019-04-27T20:38:21.418Z,7.90
2019-04-27T20:40:51.025Z,8.57
2019-04-27T20:43:21.402Z,6.93
2019-04-27T20:45:51.479Z,9.53
2019-04-27T20:48:21.176Z,6.50
2019-04-27T20:50:51.214Z,10.07
2019-04-27T20:53:22.734Z,11.33
2019-04-27T20:55:50.783Z,7.93
2019-04-27T20:58:18.822Z,5.07
2019-04-27T21:00:46.893Z,8.23
2019-04-27T21:03:32.555Z,7.50
2019-04-27T21:06:30.853Z,8.83
2019-04-27T21:08:59.028Z,7.23
2019-04-27T21:11:42.833Z,6.33
2019-04-27T21:14:11.286Z,7.73
2019-04-27T21:16:41.325Z,5.67
2019-04-27T21:19:10.966Z,7.13
2019-04-27T21:21:40.701Z,5.97
2019-04-27T21:24:09.749Z,9.20
2019-04-27T21:26:37.974Z,9.30
2019-04-27T21:29:06.115Z,6.80
2019-04-27T21:31:34.238Z,5.57
2019-04-27T21:34:02.309Z,6.27
2019-04-27T21:36:30.981Z,7.00
2019-04-27T21:39:38.092Z,4.67
2019-04-27T21:42:06.130Z,5.50
2019-04-27T21:44:34.258Z,6.33
2019-04-27T21:47:02.436Z,5.27
2019-04-27T21:49:31.458Z,9.43
2019-04-27T21:52:07.889Z,7.27
2019-04-27T21:54:36.902Z,7.90
2019-04-27T21:57:05.017Z,5.90
2019-04-27T21:59:33.117Z,6.27
2019-04-27T22:02:03.158Z,6.23
2019-04-27T22:04:31.589Z,7.20
2019-04-27T22:07:01.378Z,7.87
2019-04-27T22:09:29.868Z,7.37
2019-04-27T22:11:57.945Z,7.53
2019-04-27T22:14:26.469Z,7.00
2019-04-27T22:16:54.502Z,6.23
2019-04-27T22:19:22.804Z,7.93
2019-04-27T22:21:52.073Z,8.87
2019-04-27T22:24:30.956Z,9.37
2019-04-27T22:26:59.171Z,7.07
2019-04-27T22:29:27.342Z,6.57
2019-04-27T22:31:55.413Z,7.47
2019-04-27T22:34:24.484Z,8.60
2019-04-27T22:36:52.584Z,6.60
2019-04-27T22:39:30.883Z,7.37
2019-04-27T22:42:24.878Z,5.03
2019-04-27T22:44:57.858Z,7.23
2019-04-27T22:47:26.129Z,8.23
2019-04-27T22:49:54.210Z,7.93
2019-04-27T22:52:22.316Z,8.37
2019-04-27T22:54:51.316Z,10.23
2019-04-27T22:57:28.086Z,6.83
2019-04-27T23:00:15.728Z,10.13
2019-04-27T23:02:52.138Z,8.60
2019-04-27T23:05:20.945Z,10.70
2019-04-27T23:07:49.086Z,11.53
2019-04-27T23:10:17.374Z,10.77
2019-04-27T23:12:46.965Z,8.80
2019-04-27T23:15:19.419Z,10.57
2019-04-27T23:17:52.192Z,9.73
2019-04-27T23:20:20.851Z,10.63
2019-04-27T23:22:49.510Z,13.10
2019-04-27T23:25:17.640Z,13.40
2019-04-27T23:27:45.726Z,13.67
2019-04-27T23:30:14.495Z,13.23
2019-04-27T23:32:44.781Z,13.47
2019-04-27T23:35:12.922Z,16.87
2019-04-27T23:37:40.929Z,17.83
2019-04-27T23:40:11.115Z,18.40
2019-04-27T23:42:39.407Z,17.03
2019-04-27T23:45:08.511Z,20.20
2019-04-27T23:47:37.084Z,19.23
2019-04-27T23:50:06.790Z,16.07
2019-04-27T23:52:52.834Z,17.80
2019-04-27T23:55:22.427Z,18.77
2019-04-27T23:57:50.462Z,18.50
